NEODyS-2

Near Earth Objects - Dynamic Site
NEODyS ∴ Observatories ∴ Site 691 ∴ Obs & residuals
Contact »
691  ▹ 
OBSERVATIONS AND RESIDUALS

691-Steward Observatory, Kitt Peak-Spacewatch

Detections | Residuals | Detections & Residuals

[1-200] [201-400] [401-600] [601-800] [801-1000] [1001-1200] [1201-1400] [1401-1600] [1601-1800] [1801-2000] [2001-2200] [2201-2400] [2401-2600] [2601-2800] [2801-3000] [3001-3200] [3201-3400] [3401-3600] [3601-3800] [3801-4000] [4001-4200] [4201-4400] [4401-4600] [4601-4800] [4801-5000] [5001-5200] [5201-5400] [5401-5600] [5601-5800] [5801-6000] [6001-6200] [6201-6400] [6401-6600] [6601-6800] [6801-7000] [7001-7200] [7201-7400] [7401-7600] [7601-7800] [7801-8000] [8001-8200] [8201-8400] [8401-8600] [8601-8800] [8801-9000] [9001-9200] [9201-9400] [9401-9600] [9601-9800] [9801-10000] [10001-10200] [10201-10400] [10401-10600] [10601-10800] [10801-11000] [11001-11200] [11201-11400] [11401-11600] [11601-11800] [11801-12000] [12001-12200] [12201-12400] [12401-12600] [12601-12800] [12801-13000] [13001-13200] [13201-13400] [13401-13600] [13601-13800] [13801-14000] [14001-14200] [14201-14400] [14401-14600] [14601-14800] [14801-15000] [15001-15200] [15201-15400] [15401-15600] [15601-15800] [15801-16000] [16001-16200] [16201-16400] [16401-16600] [16601-16800] [16801-17000] [17001-17200] [17201-17400] [17401-17600] [17601-17800] [17801-18000] [18001-18200] [18201-18400] [18401-18600] [18601-18800] [18801-19000] [19001-19200] [19201-19400] [19401-19600] [19601-19800] [19801-20000] [20001-20200] [20201-20400] [20401-20600] [20601-20800] [20801-21000] [21001-21200] [21201-21400] [21401-21600] [21601-21800] [21801-22000] [22001-22200] [22201-22400] [22401-22600] [22601-22800] [22801-23000] [23001-23200] [23201-23400] [23401-23600] [23601-23800] [23801-24000] [24001-24200] [24201-24400] [24401-24600] [24601-24800] [24801-25000] [25001-25200] [25201-25400] [25401-25600] [25601-25800] [25801-26000] [26001-26200] [26201-26400] [26401-26600] [26601-26800] [26801-27000] [27001-27200] [27201-27400] [27401-27600] [27601-27800] [27801-28000] [28001-28200] [28201-28400] [28401-28600] [28601-28800] [28801-29000] [29001-29200] [29201-29400] [29401-29600] [29601-29800] [29801-30000] [30001-30200] [30201-30400] [30401-30600] [30601-30800] [30801-31000] [31001-31200] [31201-31400] [31401-31600] [31601-31800] [31801-32000] [32001-32200] [32201-32400] [32401-32600] [32601-32800] [32801-33000] [33001-33200] [33201-33400] [33401-33600] [33601-33800] [33801-34000] [34001-34200] [34201-34400] [34401-34600] [34601-34800] [34801-35000] [35001-35200] [35201-35400] [35401-35600] [35601-35800] [35801-36000] [36001-36200] [36201-36400] [36401-36600] [36601-36800] [36801-37000] [37001-37200] [37201-37400] [37401-37600] [37601-37800] [37801-38000] [38001-38200] [38201-38400] [38401-38600] [38601-38800] [38801-39000] [39001-39200] [39201-39400] [39401-39600] [39601-39800] [39801-40000] [40001-40200] [40201-40400] [40401-40600] [40601-40800] [40801-41000] [41001-41200] [41201-41400] [41401-41600] [41601-41800] [41801-42000] [42001-42200] [42201-42400] [42401-42600] [42601-42800] [42801-43000] [43001-43200] [43201-43400] [43401-43600] [43601-43800] [43801-44000] [44001-44200] [44201-44400] [44401-44600] [44601-44800] [44801-45000] [45001-45200] [45201-45400] [45401-45600] [45601-45800] [45801-46000] [46001-46200] [46201-46400] [46401-46600] [46601-46800] [46801-47000] [47001-47200] [47201-47400] [47401-47600] [47601-47800] [47801-48000] [48001-48200] [48201-48400] [48401-48600] [48601-48800] [48801-49000] [49001-49200] [49201-49400] [49401-49600] [49601-49800] [49801-50000] [50001-50200] [50201-50388]

Designation T Tech N Date Right Ascension Declination Apparent Magnitude Star Catalog Site code χ Used A Used M
yr-mo-day precision hr:min:sec precision rms F bias residual deg min sec precision rms F bias residual mag/col rms residual
Didymos O c 1996-04-11.32209 1.000E-05 12:56:30.250 1.500E-01 0.600 F -0.074 0.169 -00° 28' 58.10" 1.000E-01 0.600 F -0.971 0.834 20.4 V 0.70 -0.24 i 691 1.42 Yes Yes
Didymos O c 1996-04-12.23126 1.000E-05 12:55:15.710 1.500E-01 0.600 F -0.074 -1.128 -00° 22' 34.00" 1.000E-01 0.600 F -0.971 -0.136 21.3 V 0.70 0.63 i 691 1.90 Yes Yes
1996GQ O c 1996-04-12.23207 1.000E-05 12:56:31.490 1.500E-01 0.600 F -0.074 -0.587 -00° 32' 33.30" 1.000E-01 0.600 F -0.971 0.014 20.3 V 0.70 -0.20 i 691 1.01 Yes Yes
Didymos O c 1996-04-12.23771 1.000E-05 12:55:15.190 1.500E-01 0.600 F -0.074 -0.784 -00° 22' 31.60" 1.000E-01 0.600 F -0.971 -0.442 21.0 V 0.70 0.33 i 691 1.50 Yes Yes
1996GQ O c 1996-04-12.23854 1.000E-05 12:56:32.000 1.500E-01 0.600 F -0.074 0.582 -00° 32' 41.30" 1.000E-01 0.600 F -0.971 -0.340 20.3 V 0.70 -0.20 i 691 1.16 Yes Yes
Didymos O c 1996-04-12.24412 1.000E-05 12:55:14.620 1.500E-01 0.600 F -0.074 -1.238 -00° 22' 28.40" 1.000E-01 0.600 F -0.971 0.070 21.4 V 0.70 0.73 i 691 2.07 Yes Yes
1996GQ O c 1996-04-12.24494 1.000E-05 12:56:32.380 1.500E-01 0.600 F -0.074 -0.106 -00° 32' 48.80" 1.000E-01 0.600 F -0.971 -0.280 20.1 V 0.70 -0.40 i 691 0.51 Yes Yes
1996GQ O c 1996-04-13.21696 1.000E-05 12:57:51.060 1.500E-01 0.600 F -0.129 0.044 -00° 51' 29.90" 1.000E-01 0.600 F -0.847 0.624 21.2 V 0.70 0.61 i 691 1.06 Yes Yes
1996GQ O c 1996-04-13.22330 1.000E-05 12:57:51.480 1.500E-01 0.600 F -0.129 0.272 -00° 51' 37.20" 1.000E-01 0.600 F -0.847 0.491 21.0 V 0.70 0.41 i 691 0.95 Yes Yes
Didymos O c 1996-04-13.23066 1.000E-05 12:53:54.420 1.500E-01 0.600 F -0.128 -0.510 -00° 15' 39.40" 1.000E-01 0.600 F -0.891 -0.542 21.9 V 0.70 1.20 i 691 1.24 Yes Yes
Didymos O c 1996-04-14.32313 1.000E-05 12:52:26.320 1.500E-01 0.600 F -0.128 -0.356 -00° 08' 15.50" 1.000E-01 0.600 F -0.891 0.385 21.9 V 0.70 1.16 i 691 0.87 Yes Yes
Didymos O c 1996-04-14.32934 1.000E-05 12:52:25.810 1.500E-01 0.600 F -0.128 -0.335 -00° 08' 12.70" 1.000E-01 0.600 F -0.891 0.700 21.8 V 0.70 1.06 i 691 1.29 Yes Yes
Didymos O c 1996-04-14.33554 1.000E-05 12:52:25.330 1.500E-01 0.600 F -0.128 0.120 -00° 08' 10.50" 1.000E-01 0.600 F -0.891 0.419 21.9 V 0.70 1.16 i 691 0.73 Yes Yes
Didymos O c 1996-04-15.23536 1.000E-05 12:51:14.050 1.500E-01 0.600 F -0.128 -0.522 -00° 02' 14.30" 1.000E-01 0.600 F -0.891 0.619 21.5 V 0.70 0.73 i 691 1.35 Yes Yes
Didymos O c 1996-04-15.24091 1.000E-05 12:51:13.620 1.500E-01 0.600 F -0.128 -0.195 -00° 02' 12.20" 1.000E-01 0.600 F -0.891 0.549 21.4 V 0.70 0.63 i 691 0.97 Yes Yes
Didymos O c 1996-04-15.24698 1.000E-05 12:51:13.130 1.500E-01 0.600 F -0.128 -0.132 -00° 02' 09.20" 1.000E-01 0.600 F -0.891 1.175 21.5 V 0.70 0.73 i 691 1.97 Yes Yes
1996GD1 O c 1996-04-15.39431 1.000E-05 15:18:29.500 1.500E-01 0.600 F 0.233 -0.939 -07° 04' 36.30" 1.000E-01 0.600 F -0.502 0.420 19.7 V 0.70 0.64 i 691 1.74 Yes Yes
1996GD1 O c 1996-04-15.41850 1.000E-05 15:18:26.530 1.500E-01 0.600 F 0.233 -0.123 -07° 05' 19.40" 1.000E-01 0.600 F -0.502 0.177 19.7 V 0.70 0.65 i 691 0.36 Yes Yes
1996GD1 O c 1996-04-15.44022 1.000E-05 15:18:23.770 1.500E-01 0.600 F 0.233 -0.815 -07° 05' 57.60" 1.000E-01 0.600 F -0.502 0.450 19.9 V 0.70 0.85 i 691 1.57 Yes Yes
1996GD1 O c 1996-04-16.40807 1.000E-05 15:16:28.420 1.500E-01 0.600 F 0.174 -0.779 -07° 35' 30.90" 1.000E-01 0.600 F -0.266 -0.439 19.4 V 0.70 0.45 i 691 1.51 Yes Yes
1996GD1 O c 1996-04-16.42912 1.000E-05 15:16:25.590 1.500E-01 0.600 F 0.174 -0.440 -07° 36' 09.60" 1.000E-01 0.600 F -0.266 0.456 20.6 V 0.70 1.65 i 691 1.07 Yes Yes
1996GD1 O c 1996-04-16.45054 1.000E-05 15:16:22.690 1.500E-01 0.600 F 0.174 -0.474 -07° 36' 50.30" 1.000E-01 0.600 F -0.266 0.038 19.8 V 0.70 0.85 i 691 0.80 Yes Yes
1996HW1 O C 1996-04-17.42206 1.000E-05 15:20:10.940 1.500E-01 0.600 F 0.054 0.039 -08° 17' 16.70" 1.000E-01 0.600 F -0.326 0.235 18.4 V 0.70 -0.09 a 691 0.40 Yes Yes
1996HW1 O C 1996-04-17.44569 1.000E-05 15:20:09.680 1.500E-01 0.600 F 0.054 -0.110 -08° 17' 04.20" 1.000E-01 0.600 F -0.326 0.123 18.5 V 0.70 0.01 a 691 0.28 Yes Yes
1996HW1 O C 1996-04-17.47516 1.000E-05 15:20:08.130 1.500E-01 0.600 F 0.054 -0.029 -08° 16' 48.30" 1.000E-01 0.600 F -0.326 0.270 18.9 V 0.70 0.41 a 691 0.45 Yes Yes
Didymos O c 1996-04-18.16043 1.000E-05 12:47:28.190 1.500E-01 0.600 F 0.060 -0.608 +00° 16' 03.80" 1.000E-01 0.600 F -0.443 -0.212 21.0 V 0.70 0.13 i 691 1.07 Yes Yes
Didymos O c 1996-04-18.18135 1.000E-05 12:47:26.530 1.500E-01 0.600 F 0.060 -1.197 +00° 16' 10.80" 1.000E-01 0.600 F -0.443 -0.730 21.3 V 0.70 0.43 i 691 2.34 Yes Yes
Didymos O c 1996-04-18.20216 1.000E-05 12:47:24.930 1.500E-01 0.600 F 0.060 -0.969 +00° 16' 18.40" 1.000E-01 0.600 F -0.443 -0.604 21.4 V 0.70 0.53 i 691 1.90 Yes Yes
1996HN O c 1996-04-19.22563 1.000E-05 13:40:34.670 1.500E-01 0.600 F 0.222 -1.114 -06° 43' 45.30" 1.000E-01 0.600 F -0.004 0.696 20.0 V 0.70 0.15 i 691 2.29 Yes Yes
1996HN O c 1996-04-19.24693 1.000E-05 13:40:35.670 1.500E-01 0.600 F 0.222 -0.832 -06° 43' 11.30" 1.000E-01 0.600 F -0.004 0.251 19.8 V 0.70 -0.05 i 691 1.52 Yes Yes
1996HN O c 1996-04-19.26794 1.000E-05 13:40:36.650 1.500E-01 0.600 F 0.222 -0.507 -06° 42' 37.30" 1.000E-01 0.600 F -0.004 0.224 19.9 V 0.70 0.05 i 691 0.97 Yes Yes
1996DH O c 1996-04-20.16788 1.000E-05 08:40:24.860 1.500E-01 0.600 F -0.364 0.054 +03° 56' 52.70" 1.000E-01 0.600 F 0.064 -0.168 20.5 V 0.70 0.59 i 691 0.29 Yes Yes
1996DH O c 1996-04-20.18005 1.000E-05 08:40:25.300 1.500E-01 0.600 F -0.364 0.022 +03° 56' 50.60" 1.000E-01 0.600 F 0.064 0.148 20.4 V 0.70 0.49 i 691 0.25 Yes Yes
1996DH O c 1996-04-20.19132 1.000E-05 08:40:25.720 1.500E-01 0.600 F -0.364 0.161 +03° 56' 48.10" 1.000E-01 0.600 F 0.064 -0.112 20.4 V 0.70 0.49 i 691 0.33 Yes Yes
1996HN O c 1996-04-20.44833 1.000E-05 13:41:40.970 1.500E-01 0.600 F 0.222 -0.115 -06° 10' 33.50" 1.000E-01 0.600 F -0.004 -0.108 20.3 V 0.70 0.41 i 691 0.27 Yes Yes
1996HN O c 1996-04-20.45399 1.000E-05 13:41:41.280 1.500E-01 0.600 F 0.222 0.255 -06° 10' 24.20" 1.000E-01 0.600 F -0.004 -0.126 19.9 V 0.70 0.01 i 691 0.49 Yes Yes
1996HN O c 1996-04-22.40491 1.000E-05 13:43:33.300 1.500E-01 0.600 F 0.583 -0.188 -05° 17' 12.20" 1.000E-01 0.600 F -0.218 -0.136 20.3 V 0.70 0.36 i 691 0.40 Yes Yes
1996HN O c 1996-04-22.41094 1.000E-05 13:43:33.590 1.500E-01 0.600 F 0.583 -0.387 -05° 17' 01.80" 1.000E-01 0.600 F -0.218 0.332 20.1 V 0.70 0.16 i 691 0.88 Yes Yes
1996HW1 O c 1996-04-23.36349 1.000E-05 15:14:40.360 1.500E-01 0.600 F -0.282 0.734 -07° 23' 14.60" 1.000E-01 0.600 F 0.047 0.135 18.5 V 0.70 0.22 i 691 1.25 Yes Yes
1996HW1 O c 1996-04-23.39232 1.000E-05 15:14:38.540 1.500E-01 0.600 F -0.282 0.513 -07° 22' 58.80" 1.000E-01 0.600 F 0.047 -0.138 18.2 V 0.70 -0.08 i 691 0.89 Yes Yes
1996HW1 O c 1996-04-23.42070 1.000E-05 15:14:36.770 1.500E-01 0.600 F -0.282 0.596 -07° 22' 42.70" 1.000E-01 0.600 F 0.047 0.115 18.3 V 0.70 0.02 i 691 1.01 Yes Yes
1996HW1 O c 1996-04-24.36291 1.000E-05 15:13:39.320 1.500E-01 0.600 F -0.282 -0.379 -07° 13' 56.60" 1.000E-01 0.600 F 0.047 0.178 18.5 V 0.70 0.25 i 691 0.70 Yes Yes
1996HW1 O c 1996-04-24.36742 1.000E-05 15:13:39.030 1.500E-01 0.600 F -0.282 -0.396 -07° 13' 54.20" 1.000E-01 0.600 F 0.047 0.053 18.5 V 0.70 0.25 i 691 0.67 Yes Yes
1996HW1 O c 1996-04-24.37196 1.000E-05 15:13:38.740 1.500E-01 0.600 F -0.282 -0.384 -07° 13' 51.70" 1.000E-01 0.600 F 0.047 0.010 18.4 V 0.70 0.15 i 691 0.64 Yes Yes
1996HN O c 1996-04-25.27019 1.000E-05 13:46:25.500 1.500E-01 0.600 F 0.666 -0.203 -03° 59' 12.40" 1.000E-01 0.600 F -0.200 0.120 20.2 V 0.70 0.19 i 691 0.40 Yes Yes
1996HN O c 1996-04-25.27493 1.000E-05 13:46:25.770 1.500E-01 0.600 F 0.666 0.229 -03° 59' 04.50" 1.000E-01 0.600 F -0.200 0.326 i 691 0.68 Yes No
1996HW1 O c 1996-04-25.29717 1.000E-05 15:12:41.190 1.500E-01 0.600 F -0.282 -0.806 -07° 05' 12.00" 1.000E-01 0.600 F 0.047 0.930 18.8 V 0.70 0.58 i 691 2.05 Yes Yes
1996HW1 O c 1996-04-25.30149 1.000E-05 15:12:40.900 1.500E-01 0.600 F -0.282 -0.928 -07° 05' 09.50" 1.000E-01 0.600 F 0.047 1.010 18.8 V 0.70 0.58 i 691 2.29 Yes Yes
Didymos O C 1996-05-16.18838 1.000E-05 12:23:49.410 1.500E-01 0.600 F -0.002 -0.259 +01° 38' 28.20" 1.000E-01 0.600 F -0.169 -0.174 22.1 0.70 -0.40 i 691 0.52 Yes Yes
Didymos O C 1996-05-16.24714 1.000E-05 12:23:47.990 1.500E-01 0.600 F -0.002 0.240 +01° 38' 27.50" 1.000E-01 0.600 F -0.169 -0.238 22.2 0.70 -0.30 i 691 0.56 Yes Yes
Didymos O C 1996-05-16.27712 1.000E-05 12:23:47.260 1.500E-01 0.600 F -0.002 0.271 +01° 38' 26.80" 1.000E-01 0.600 F -0.169 -0.589 22.3 0.70 -0.20 i 691 1.08 Yes Yes
1996HN O c 1996-05-16.37583 1.000E-05 14:12:26.690 1.500E-01 0.600 F -0.157 -0.405 +03° 53' 20.40" 1.000E-01 0.600 F 0.305 -0.439 i 691 1.10 Yes No
1996HN O c 1996-05-16.38602 1.000E-05 14:12:27.500 1.500E-01 0.600 F -0.157 -0.519 +03° 53' 30.00" 1.000E-01 0.600 F 0.305 -0.100 20.5 V 0.70 -0.09 i 691 0.97 Yes Yes
1996HW1 O c 1996-05-16.39248 1.000E-05 14:47:25.730 1.500E-01 0.600 F 0.386 -0.106 -03° 54' 17.80" 1.000E-01 0.600 F -0.154 -0.171 i 691 0.34 Yes No
1996HW1 O c 1996-05-16.39791 1.000E-05 14:47:25.310 1.500E-01 0.600 F 0.386 -0.177 -03° 54' 14.70" 1.000E-01 0.600 F -0.154 0.302 18.2 V 0.70 0.16 i 691 0.58 Yes Yes
1996HW1 O c 1996-05-16.40365 1.000E-05 14:47:24.880 1.500E-01 0.600 F 0.386 -0.049 -03° 54' 11.90" 1.000E-01 0.600 F -0.154 0.325 i 691 0.55 Yes No
Oljato O c 1996-05-22.46482 1.000E-05 22:03:06.210 1.500E-01 0.600 F -0.100 -0.105 -13° 43' 03.70" 1.000E-01 0.600 F 0.031 0.258 17.8 V 0.70 0.24 i 691 0.46 Yes Yes
Oljato O c 1996-05-22.46883 1.000E-05 22:03:06.240 1.500E-01 0.600 F -0.100 0.299 -13° 43' 04.30" 1.000E-01 0.600 F 0.031 0.295 17.8 V 0.70 0.24 i 691 0.70 Yes Yes
1996DH O c 1996-05-23.17816 1.000E-05 09:15:55.970 1.500E-01 0.600 F -0.645 -0.383 +01° 10' 48.50" 1.000E-01 0.600 F -0.344 0.633 20.9 V 0.70 0.67 i 691 1.24 Yes Yes
1996DH O c 1996-05-23.18280 1.000E-05 09:15:56.410 1.500E-01 0.600 F -0.645 0.298 +01° 10' 45.50" 1.000E-01 0.600 F -0.344 -0.446 20.6 V 0.70 0.37 i 691 0.90 Yes Yes
1996DH O c 1996-05-23.18706 1.000E-05 09:15:56.800 1.500E-01 0.600 F -0.645 0.710 +01° 10' 43.70" 1.000E-01 0.600 F -0.344 -0.483 20.4 V 0.70 0.17 i 691 1.44 Yes Yes
1996HN O c 1996-05-23.21805 1.000E-05 14:22:52.330 1.500E-01 0.600 F 0.225 0.038 +05° 18' 12.40" 1.000E-01 0.600 F 0.109 0.206 20.3 V 0.70 -0.50 i 691 0.38 Yes Yes
1996HN O c 1996-05-23.22214 1.000E-05 14:22:52.700 1.500E-01 0.600 F 0.225 0.324 +05° 18' 14.60" 1.000E-01 0.600 F 0.109 0.065 20.3 V 0.70 -0.50 i 691 0.60 Yes Yes
1996HN O c 1996-05-23.22616 1.000E-05 14:22:53.020 1.500E-01 0.600 F 0.225 -0.045 +05° 18' 17.30" 1.000E-01 0.600 F 0.109 0.466 20.6 V 0.70 -0.20 i 691 0.85 Yes Yes
Oljato O c 1996-05-23.44992 1.000E-05 22:03:08.400 1.500E-01 0.600 F -0.100 0.061 -13° 45' 40.20" 1.000E-01 0.600 F 0.031 0.397 17.8 V 0.70 0.24 i 691 0.67 Yes Yes
Oljato O c 1996-05-23.45450 1.000E-05 22:03:08.390 1.500E-01 0.600 F -0.100 0.042 -13° 45' 41.20" 1.000E-01 0.600 F 0.031 0.192 17.8 V 0.70 0.24 i 691 0.33 Yes Yes
Oljato O c 1996-05-23.45851 1.000E-05 22:03:08.390 1.500E-01 0.600 F -0.100 0.157 -13° 45' 41.80" 1.000E-01 0.600 F 0.031 0.288 17.8 V 0.70 0.24 i 691 0.55 Yes Yes
1996HW1 O c 1996-05-24.22101 1.000E-05 14:38:00.540 1.500E-01 0.600 F -0.046 0.019 -02° 57' 04.60" 1.000E-01 0.600 F 0.173 0.320 18.5 V 0.70 0.36 i 691 0.53 Yes Yes
1996HW1 O c 1996-05-24.22504 1.000E-05 14:38:00.250 1.500E-01 0.600 F -0.046 -0.011 -02° 57' 03.10" 1.000E-01 0.600 F 0.173 0.248 18.4 V 0.70 0.26 i 691 0.41 Yes Yes
1996HW1 O c 1996-05-24.22879 1.000E-05 14:37:59.960 1.500E-01 0.600 F -0.046 -0.341 -02° 57' 01.10" 1.000E-01 0.600 F 0.173 0.786 18.5 V 0.70 0.36 i 691 1.43 Yes Yes
Kwiila O C 1996-06-15.27930 1.000E-05 17:48:56.830 1.500E-01 0.735 F -0.166 5.425 -05° 20' 14.70" 1.000E-01 0.735 F 0.235 0.414 20.8 V 0.70 0.68 a 691 7.40 No Yes
Kwiila O C 1996-06-15.30016 1.000E-05 17:48:54.390 1.500E-01 0.735 F -0.166 5.495 -05° 20' 09.00" 1.000E-01 0.735 F 0.235 0.556 20.8 V 0.70 0.68 a 691 7.51 No Yes
Kwiila O C 1996-06-15.32590 1.000E-05 17:48:51.380 1.500E-01 0.735 F -0.166 5.627 -05° 20' 02.30" 1.000E-01 0.735 F 0.235 0.389 21.0 V 0.70 0.88 a 691 7.67 No Yes
Kwiila O c 1996-06-15.35609 1.000E-05 17:48:47.380 1.500E-01 0.735 F -0.247 -1.145 -05° 19' 54.70" 1.000E-01 0.735 F 0.026 0.131 20.1 V 0.70 -0.02 i 691 1.57 Yes Yes
Kwiila O c 1996-06-15.38414 1.000E-05 17:48:44.180 1.500E-01 0.735 F -0.247 0.165 -05° 19' 46.50" 1.000E-01 0.735 F 0.026 0.823 20.1 V 0.70 -0.02 i 691 1.14 Yes Yes
Kwiila O c 1996-06-15.40521 1.000E-05 17:48:41.660 1.500E-01 0.735 F -0.247 -0.636 -05° 19' 41.40" 1.000E-01 0.735 F 0.026 0.276 20.5 V 0.70 0.38 i 691 0.95 Yes Yes
Kwiila O C 1996-06-16.34836 1.000E-05 17:46:53.440 1.500E-01 0.600 F -0.247 -0.119 -05° 15' 36.30" 1.000E-01 0.600 F 0.026 -0.141 i 691 0.31 Yes No
Kwiila O C 1996-06-16.35177 1.000E-05 17:46:53.000 1.500E-01 0.600 F -0.247 -0.646 -05° 15' 35.20" 1.000E-01 0.600 F 0.026 0.087 i 691 1.09 Yes No
Kwiila O C 1996-06-16.35659 1.000E-05 17:46:52.450 1.500E-01 0.600 F -0.247 -0.318 -05° 15' 34.20" 1.000E-01 0.600 F 0.026 -0.146 i 691 0.59 Yes No
Wilson-Harrington O c 1996-06-18.18474 1.000E-05 15:17:09.310 1.500E-01 0.600 F -0.138 -0.523 -20° 08' 54.40" 1.000E-01 0.600 F -0.493 0.528 19.2 V 0.70 0.13 i 691 1.23 Yes Yes
Wilson-Harrington O c 1996-06-18.19033 1.000E-05 15:17:08.940 1.500E-01 0.600 F -0.138 -0.140 -20° 08' 52.70" 1.000E-01 0.600 F -0.493 0.237 19.2 V 0.70 0.13 i 691 0.45 Yes Yes
Wilson-Harrington O c 1996-06-18.19569 1.000E-05 15:17:08.540 1.500E-01 0.600 F -0.138 -0.411 -20° 08' 51.20" 1.000E-01 0.600 F -0.493 -0.174 19.0 V 0.70 -0.07 i 691 0.73 Yes Yes
1996MO O c 1996-06-23.32678 1.000E-05 21:00:59.670 1.500E-01 0.600 F -0.317 0.153 -07° 24' 56.70" 1.000E-01 0.600 F -0.053 0.143 21.3 V 0.70 0.56 i 691 0.35 Yes Yes
1996MO O c 1996-06-23.34790 1.000E-05 21:00:58.210 1.500E-01 0.600 F -0.317 0.142 -07° 25' 02.90" 1.000E-01 0.600 F -0.053 -0.210 20.9 V 0.70 0.16 i 691 0.42 Yes Yes
1996MO O c 1996-06-23.36931 1.000E-05 21:00:56.690 1.500E-01 0.600 F -0.317 -0.379 -07° 25' 08.90" 1.000E-01 0.600 F -0.053 -0.291 20.7 V 0.70 -0.04 i 691 0.80 Yes Yes
1996MO O c 1996-06-24.42784 1.000E-05 20:59:44.850 1.500E-01 0.600 F -0.317 -0.397 -07° 30' 07.50" 1.000E-01 0.600 F -0.053 -0.089 20.9 V 0.70 0.18 i 691 0.68 Yes Yes
1996MO O c 1996-06-24.43129 1.000E-05 20:59:44.630 1.500E-01 0.600 F -0.317 0.035 -07° 30' 08.20" 1.000E-01 0.600 F -0.053 0.214 20.9 V 0.70 0.18 i 691 0.36 Yes Yes
1996MO O c 1996-06-24.43551 1.000E-05 20:59:44.290 1.500E-01 0.600 F -0.317 -0.491 -07° 30' 09.70" 1.000E-01 0.600 F -0.053 -0.061 20.7 V 0.70 -0.02 i 691 0.83 Yes Yes
1996MO O c 1996-06-25.41295 1.000E-05 20:58:35.900 1.500E-01 0.600 F -0.317 -0.488 -07° 35' 01.00" 1.000E-01 0.600 F -0.053 0.161 20.6 V 0.70 -0.11 i 691 0.86 Yes Yes
1996MO O c 1996-06-25.42503 1.000E-05 20:58:35.030 1.500E-01 0.600 F -0.317 -0.055 -07° 35' 05.10" 1.000E-01 0.600 F -0.053 -0.242 20.8 V 0.70 0.09 i 691 0.41 Yes Yes
Jason O c 1996-09-06.35084 1.000E-05 23:26:12.030 1.500E-01 0.600 F -0.116 0.264 -03° 28' 38.90" 1.000E-01 0.600 F -0.025 0.226 21.0 V 0.70 0.64 i 691 0.58 Yes Yes
Jason O c 1996-09-06.37184 1.000E-05 23:26:10.610 1.500E-01 0.600 F -0.116 0.565 -03° 28' 48.60" 1.000E-01 0.600 F -0.025 0.510 i 691 1.27 Yes No
Jason O c 1996-09-06.39280 1.000E-05 23:26:09.160 1.500E-01 0.600 F -0.116 0.363 -03° 28' 59.10" 1.000E-01 0.600 F -0.025 -0.026 i 691 0.61 Yes No
2006SW5 O C 1996-09-11.33082 1.000E-05 23:20:26.130 1.500E-01 0.600 F -0.341 0.187 -04° 47' 46.60" 1.000E-01 0.600 F 0.237 -0.117 21.1 V 0.70 0.29 a 691 0.37 Yes Yes
2006SW5 O C 1996-09-11.35221 1.000E-05 23:20:24.150 1.500E-01 0.600 F -0.341 0.234 -04° 47' 51.70" 1.000E-01 0.600 F 0.237 -0.063 21.4 V 0.70 0.59 a 691 0.41 Yes Yes
2006SW5 O C 1996-09-11.37390 1.000E-05 23:20:22.160 1.500E-01 0.600 F -0.341 0.518 -04° 47' 56.90" 1.000E-01 0.600 F 0.237 -0.046 21.3 V 0.70 0.49 a 691 0.88 Yes Yes
1996RG3 O c 1996-09-14.21204 1.000E-05 23:01:30.970 1.500E-01 0.600 F -0.304 -0.290 -08° 05' 13.40" 1.000E-01 0.600 F -0.241 -0.094 19.2 V 0.70 0.43 i 691 0.52 Yes Yes
1996RG3 O c 1996-09-14.23321 1.000E-05 23:01:28.500 1.500E-01 0.600 F -0.304 0.260 -08° 05' 35.30" 1.000E-01 0.600 F -0.241 -0.164 19.1 V 0.70 0.33 i 691 0.52 Yes Yes
1996RG3 O c 1996-09-14.25449 1.000E-05 23:01:25.970 1.500E-01 0.600 F -0.304 0.205 -08° 05' 56.80" 1.000E-01 0.600 F -0.241 0.256 18.9 V 0.70 0.13 i 691 0.55 Yes Yes
1996RG3 O c 1996-09-15.20868 1.000E-05 22:59:36.800 1.500E-01 0.600 F -0.304 -0.118 -08° 22' 24.10" 1.000E-01 0.600 F -0.241 0.015 18.9 V 0.70 0.12 i 691 0.20 Yes Yes
1996RG3 O c 1996-09-15.21463 1.000E-05 22:59:36.100 1.500E-01 0.600 F -0.304 0.135 -08° 22' 30.40" 1.000E-01 0.600 F -0.241 -0.056 18.8 V 0.70 0.02 i 691 0.25 Yes Yes
1996RG3 O c 1996-09-15.22069 1.000E-05 22:59:35.370 1.500E-01 0.600 F -0.304 0.149 -08° 22' 36.80" 1.000E-01 0.600 F -0.241 -0.113 18.7 V 0.70 -0.08 i 691 0.31 Yes Yes
1996RG3 O c 1996-09-17.25379 1.000E-05 22:55:35.940 1.500E-01 0.671 F -0.135 0.249 -08° 58' 23.50" 1.000E-01 0.671 F -0.078 0.285 18.9 V 0.70 0.10 i 691 0.57 Yes Yes
1996RG3 O c 1996-09-17.28602 1.000E-05 22:55:31.920 1.500E-01 0.671 F -0.135 0.460 -08° 58' 58.30" 1.000E-01 0.671 F -0.078 -0.034 18.8 V 0.70 0.00 i 691 0.69 Yes Yes
1996RG3 O c 1996-09-17.37905 1.000E-05 22:55:20.260 1.500E-01 0.671 F -0.196 -0.130 -09° 00' 37.20" 1.000E-01 0.671 F 0.158 -0.032 18.9 V 0.70 0.10 i 691 0.20 Yes Yes
1996RG3 O c 1996-09-17.38316 1.000E-05 22:55:19.770 1.500E-01 0.671 F -0.196 0.173 -09° 00' 41.60" 1.000E-01 0.671 F 0.158 -0.064 18.8 V 0.70 0.00 i 691 0.28 Yes Yes
1996RG3 O c 1996-09-17.38731 1.000E-05 22:55:19.250 1.500E-01 0.671 F -0.196 0.099 -09° 00' 45.90" 1.000E-01 0.671 F 0.158 0.045 18.9 V 0.70 0.10 i 691 0.16 Yes Yes
1998EP4 O C 1996-09-20.41315 1.000E-05 00:16:40.390 1.500E-01 0.600 F -0.130 -0.406 +05° 16' 28.10" 1.000E-01 0.600 F -0.063 0.691 20.5 V 0.70 -0.27 a 691 1.35 Yes Yes
1992QN O c 1996-09-20.41802 1.000E-05 00:24:26.030 1.500E-01 0.600 F -0.226 -0.227 +05° 18' 02.10" 1.000E-01 0.600 F 0.050 0.232 17.8 V 0.70 0.43 i 691 0.54 Yes Yes
1998EP4 O C 1996-09-20.43426 1.000E-05 00:16:37.020 1.500E-01 0.600 F -0.130 -0.371 +05° 16' 26.50" 1.000E-01 0.600 F -0.063 0.575 21.1 V 0.70 0.33 a 691 1.15 Yes Yes
1992QN O c 1996-09-20.43912 1.000E-05 00:24:22.700 1.500E-01 0.600 F -0.226 -0.247 +05° 17' 56.00" 1.000E-01 0.600 F 0.050 -0.018 17.7 V 0.70 0.34 i 691 0.41 Yes Yes
1998EP4 O C 1996-09-20.45563 1.000E-05 00:16:33.630 1.500E-01 0.600 F -0.130 -0.281 +05° 16' 25.00" 1.000E-01 0.600 F -0.063 0.606 20.6 V 0.70 -0.17 a 691 1.13 Yes Yes
1992QN O c 1996-09-20.46047 1.000E-05 00:24:19.340 1.500E-01 0.600 F -0.226 -0.271 +05° 17' 50.00" 1.000E-01 0.600 F 0.050 -0.077 17.7 V 0.70 0.34 i 691 0.47 Yes Yes
2012SF51 O C 1996-09-21.37531 1.000E-05 00:01:21.620 1.500E-01 0.600 F 0.335 -0.414 -00° 44' 06.70" 1.000E-01 0.600 F -0.560 0.194 i 691 0.76 Yes No
2012SF51 O C 1996-09-21.39628 1.000E-05 00:01:20.320 1.500E-01 0.600 F 0.335 -0.218 -00° 44' 11.70" 1.000E-01 0.600 F -0.560 0.193 20.5 V 0.70 0.05 i 691 0.49 Yes Yes
2012SF51 O C 1996-09-21.41768 1.000E-05 00:01:18.980 1.500E-01 0.600 F 0.335 -0.243 -00° 44' 16.50" 1.000E-01 0.600 F -0.560 0.495 i 691 0.92 Yes No
1996TC1 O c 1996-10-04.16409 1.000E-05 23:15:10.530 1.500E-01 0.600 F 0.136 0.021 +06° 06' 33.00" 1.000E-01 0.600 F 0.279 0.157 20.6 V 0.70 0.03 i 691 0.32 Yes Yes
1996TC1 O c 1996-10-04.18650 1.000E-05 23:15:11.060 1.500E-01 0.600 F 0.136 0.304 +06° 07' 39.60" 1.000E-01 0.600 F 0.279 -0.313 20.8 V 0.70 0.23 i 691 0.83 Yes Yes
1996TC1 O c 1996-10-04.20773 1.000E-05 23:15:11.500 1.500E-01 0.600 F 0.136 0.047 +06° 08' 43.20" 1.000E-01 0.600 F 0.279 0.182 21.0 V 0.70 0.42 i 691 0.37 Yes Yes
1996RG3 O c 1996-10-05.12388 1.000E-05 22:17:55.220 1.500E-01 0.600 F -0.181 -0.019 -14° 25' 21.30" 1.000E-01 0.600 F 0.201 -0.107 18.9 V 0.70 0.00 i 691 0.18 Yes Yes
1996RG3 O c 1996-10-05.13002 1.000E-05 22:17:54.430 1.500E-01 0.600 F -0.181 0.072 -14° 25' 27.80" 1.000E-01 0.600 F 0.201 -0.109 18.8 V 0.70 -0.10 i 691 0.22 Yes Yes
1996RG3 O c 1996-10-05.13741 1.000E-05 22:17:53.470 1.500E-01 0.600 F -0.181 0.060 -14° 25' 35.50" 1.000E-01 0.600 F 0.201 0.005 18.8 V 0.70 -0.10 i 691 0.10 Yes Yes
1996TC1 O c 1996-10-05.15113 1.000E-05 23:15:53.440 1.500E-01 0.600 F 0.136 -0.257 +06° 50' 31.80" 1.000E-01 0.600 F 0.279 -0.121 21.1 V 0.70 0.26 i 691 0.50 Yes Yes
1996TC1 O c 1996-10-05.15580 1.000E-05 23:15:53.570 1.500E-01 0.600 F 0.136 0.256 +06° 50' 43.20" 1.000E-01 0.600 F 0.279 -0.001 21.2 V 0.70 0.36 i 691 0.45 Yes Yes
1996TC1 O c 1996-10-05.16120 1.000E-05 23:15:53.640 1.500E-01 0.600 F 0.136 -0.316 +06° 50' 56.00" 1.000E-01 0.600 F 0.279 -0.225 21.1 V 0.70 0.26 i 691 0.69 Yes Yes
Nyx O C 1996-10-05.30468 1.000E-05 21:13:35.660 1.500E-01 0.600 F 0.042 -0.076 +08° 45' 03.00" 1.000E-01 0.600 F 0.503 -0.021 14.0 V 0.70 -0.21 c 691 0.13 Yes Yes
Nyx O C 1996-10-05.30927 1.000E-05 21:13:36.390 1.500E-01 0.600 F 0.042 0.239 +08° 45' 13.60" 1.000E-01 0.600 F 0.503 -0.870 c 691 1.51 Yes No
Nyx O C 1996-10-05.31325 1.000E-05 21:13:36.980 1.500E-01 0.600 F 0.042 -0.173 +08° 45' 24.70" 1.000E-01 0.600 F 0.503 0.305 c 691 0.59 Yes No
1998OR2 O C 1996-10-05.39175 1.000E-05 02:45:24.440 1.500E-01 0.600 F 0.484 -0.502 +17° 10' 21.00" 1.000E-01 0.600 F 0.202 0.259 22.0 V 0.70 0.50 a 691 0.94 Yes Yes
1998OR2 O C 1996-10-05.42378 1.000E-05 02:45:22.930 1.500E-01 0.600 F 0.484 -1.074 +17° 10' 16.20" 1.000E-01 0.600 F 0.202 -0.123 22.8 V 0.70 1.30 a 691 1.80 Yes Yes
1998OR2 O C 1996-10-05.45567 1.000E-05 02:45:21.500 1.500E-01 0.600 F 0.484 -0.603 +17° 10' 11.60" 1.000E-01 0.600 F 0.202 -0.286 22.5 V 0.70 1.00 a 691 1.11 Yes Yes
1996TC1 O c 1996-10-06.11095 1.000E-05 23:16:30.770 1.500E-01 0.600 F 0.151 -0.368 +07° 25' 17.50" 1.000E-01 0.600 F 0.435 -0.058 20.9 V 0.70 -0.19 i 691 0.65 Yes Yes
1996TC1 O c 1996-10-06.12197 1.000E-05 23:16:31.030 1.500E-01 0.600 F 0.151 0.065 +07° 25' 40.00" 1.000E-01 0.600 F 0.435 0.423 21.2 V 0.70 0.11 i 691 0.79 Yes Yes
2000BH19 O C 1996-10-07.28472 1.000E-05 01:08:47.670 1.500E-01 0.600 F -0.303 0.196 +08° 42' 17.20" 1.000E-01 0.600 F -0.010 0.185 21.6 V 0.70 0.91 i 691 0.48 Yes Yes
2000BH19 O C 1996-10-07.30573 1.000E-05 01:08:45.920 1.500E-01 0.600 F -0.303 0.261 +08° 42' 09.10" 1.000E-01 0.600 F -0.010 0.507 22.2 V 0.70 1.51 i 691 0.99 Yes Yes
2000BH19 O C 1996-10-07.32670 1.000E-05 01:08:44.140 1.500E-01 0.600 F -0.303 -0.151 +08° 42' 01.00" 1.000E-01 0.600 F -0.010 0.841 21.7 V 0.70 1.01 i 691 1.43 Yes Yes
1996TC1 O C 1996-10-08.23076 1.000E-05 23:17:39.650 1.500E-01 0.600 F 0.166 -0.031 +08° 23' 03.10" 1.000E-01 0.600 F 0.226 0.136 21.0 V 0.70 -0.57 i 691 0.25 Yes Yes
1996TC1 O C 1996-10-08.23861 1.000E-05 23:17:39.770 1.500E-01 0.600 F 0.166 0.148 +08° 23' 14.20" 1.000E-01 0.600 F 0.226 0.633 21.4 V 0.70 -0.17 i 691 1.18 Yes Yes
Nyx O C 1996-10-09.11898 1.000E-05 21:26:41.570 1.500E-01 0.600 F 0.171 -0.373 +11° 43' 15.20" 1.000E-01 0.600 F 0.365 -0.669 13.7 V 0.70 -0.29 c 691 1.28 Yes Yes
Nyx O C 1996-10-09.12339 1.000E-05 21:26:42.460 1.500E-01 0.600 F 0.171 -0.433 +11° 43' 28.80" 1.000E-01 0.600 F 0.365 -0.676 c 691 1.34 Yes No
1996TP6 O c 1996-10-09.23148 1.000E-05 01:55:29.620 1.500E-01 0.600 F -0.446 -0.409 +01° 55' 24.70" 1.000E-01 0.600 F -0.231 0.727 20.1 V 0.70 -0.06 i 691 1.41 Yes Yes
1996TP6 O c 1996-10-09.25227 1.000E-05 01:55:26.720 1.500E-01 0.600 F -0.446 -0.909 +01° 55' 33.30" 1.000E-01 0.600 F -0.231 0.445 20.1 V 0.70 -0.06 i 691 1.71 Yes Yes
1996TP6 O c 1996-10-09.27300 1.000E-05 01:55:23.880 1.500E-01 0.600 F -0.446 -0.524 +01° 55' 42.20" 1.000E-01 0.600 F -0.231 0.497 20.3 V 0.70 0.14 i 691 1.22 Yes Yes
1996TC1 O C 1996-10-09.29100 1.000E-05 23:18:11.210 1.500E-01 0.600 F 0.166 0.006 +08° 45' 00.30" 1.000E-01 0.600 F 0.226 -0.727 21.6 V 0.70 -0.18 i 691 1.31 Yes Yes
1996TC1 O C 1996-10-09.29905 1.000E-05 23:18:11.340 1.500E-01 0.600 F 0.166 0.114 +08° 45' 09.70" 1.000E-01 0.600 F 0.226 -0.410 21.5 V 0.70 -0.28 i 691 0.77 Yes Yes
2007DB83 O C 1996-10-09.38862 1.000E-05 01:59:30.740 1.500E-01 0.600 F -0.756 -0.916 +00° 58' 49.50" 1.000E-01 0.600 F 0.151 0.251 21.7 V 0.70 0.63 a 691 1.59 Yes Yes
2007DB83 O C 1996-10-09.40950 1.000E-05 01:59:29.010 1.500E-01 0.600 F -0.756 -0.731 +00° 58' 44.00" 1.000E-01 0.600 F 0.151 -0.074 21.5 V 0.70 0.43 a 691 1.23 Yes Yes
2007DB83 O C 1996-10-09.43057 1.000E-05 01:59:27.260 1.500E-01 0.600 F -0.756 -0.644 +00° 58' 38.80" 1.000E-01 0.600 F 0.151 -0.051 21.3 V 0.70 0.23 a 691 1.08 Yes Yes
1996TR6 O c 1996-10-09.47046 1.000E-05 03:54:35.170 1.500E-01 0.600 F -0.492 0.344 +04° 58' 28.30" 1.000E-01 0.600 F 0.019 -0.472 19.7 V 0.70 0.16 i 691 0.98 Yes Yes
1996TR6 O c 1996-10-09.48788 1.000E-05 03:54:34.800 1.500E-01 0.600 F -0.492 0.151 +04° 57' 48.60" 1.000E-01 0.600 F 0.019 -0.421 19.7 V 0.70 0.16 i 691 0.75 Yes Yes
1996TR6 O c 1996-10-09.50538 1.000E-05 03:54:34.450 1.500E-01 0.600 F -0.492 0.234 +04° 57' 08.50" 1.000E-01 0.600 F 0.019 -0.572 19.5 V 0.70 -0.04 i 691 1.03 Yes Yes
1996TP6 O c 1996-10-10.37041 1.000E-05 01:52:58.740 1.500E-01 0.600 F -0.387 -0.998 +02° 03' 24.80" 1.000E-01 0.600 F -0.026 -0.422 20.2 V 0.70 0.03 i 691 1.85 Yes Yes
1996TP6 O c 1996-10-10.37645 1.000E-05 01:52:57.920 1.500E-01 0.600 F -0.387 -0.977 +02° 03' 27.90" 1.000E-01 0.600 F -0.026 0.151 20.2 V 0.70 0.03 i 691 1.68 Yes Yes
1996TP6 O c 1996-10-10.38206 1.000E-05 01:52:57.170 1.500E-01 0.600 F -0.387 -0.789 +02° 03' 30.40" 1.000E-01 0.600 F -0.026 0.306 20.2 V 0.70 0.03 i 691 1.44 Yes Yes
1996TR6 O c 1996-10-10.41588 1.000E-05 03:54:19.270 1.500E-01 0.600 F -0.492 -0.715 +04° 22' 28.80" 1.000E-01 0.600 F 0.019 -0.353 19.3 V 0.70 -0.22 i 691 1.34 Yes Yes
1996TR6 O c 1996-10-10.42127 1.000E-05 03:54:19.150 1.500E-01 0.600 F -0.492 -0.570 +04° 22' 16.60" 1.000E-01 0.600 F 0.019 -0.215 19.4 V 0.70 -0.12 i 691 1.02 Yes Yes
1996TR6 O c 1996-10-10.42678 1.000E-05 03:54:19.020 1.500E-01 0.600 F -0.441 -0.582 +04° 22' 03.90" 1.000E-01 0.600 F -0.037 -0.246 19.4 V 0.70 -0.12 i 691 1.06 Yes Yes
1996TC1 O C 1996-10-11.21975 1.000E-05 23:19:09.080 1.500E-01 0.600 F -0.025 -0.715 +09° 17' 03.20" 1.000E-01 0.600 F 0.099 0.101 21.9 V 0.70 -0.24 i 691 1.71 Yes Yes
1996TC1 O C 1996-10-11.23809 1.000E-05 23:19:09.450 1.500E-01 0.600 F -0.025 0.725 +09° 17' 19.20" 1.000E-01 0.600 F 0.099 0.221 22.1 V 0.70 -0.04 i 691 1.73 Yes Yes
1996TR6 O c 1996-10-11.44008 1.000E-05 03:53:58.240 1.500E-01 0.735 F -0.366 -1.193 +03° 43' 20.10" 1.000E-01 0.735 F 0.104 -0.470 19.4 V 0.70 -0.10 i 691 1.75 Yes Yes
1996TR6 O c 1996-10-11.44576 1.000E-05 03:53:58.120 1.500E-01 0.735 F -0.366 -0.657 +03° 43' 07.60" 1.000E-01 0.735 F 0.104 0.082 19.4 V 0.70 -0.10 i 691 0.91 Yes Yes
1996TR6 O c 1996-10-11.45243 1.000E-05 03:53:57.910 1.500E-01 0.735 F -0.366 -1.063 +03° 42' 51.70" 1.000E-01 0.735 F 0.104 -0.490 19.4 V 0.70 -0.10 i 691 1.60 Yes Yes
1996TR6 O c 1996-10-11.46447 1.000E-05 03:53:57.650 1.500E-01 0.735 F -0.366 -0.021 +03° 42' 24.50" 1.000E-01 0.735 F 0.104 -0.017 19.3 V 0.70 -0.20 i 691 0.04 Yes Yes
1996TR6 O c 1996-10-11.48601 1.000E-05 03:53:57.070 1.500E-01 0.735 F -0.366 0.082 +03° 41' 34.60" 1.000E-01 0.735 F 0.104 -0.395 19.2 V 0.70 -0.30 i 691 0.55 Yes Yes
1996TR6 O c 1996-10-11.50722 1.000E-05 03:53:56.480 1.500E-01 0.735 F -0.366 -0.175 +03° 40' 46.00" 1.000E-01 0.735 F 0.104 -0.216 19.4 V 0.70 -0.10 i 691 0.38 Yes Yes
1996TP6 O c 1996-10-12.33399 1.000E-05 01:48:47.870 1.500E-01 0.600 F -0.304 -0.373 +02° 16' 58.00" 1.000E-01 0.600 F 0.076 0.272 20.6 V 0.70 0.42 i 691 0.78 Yes Yes
1996TP6 O c 1996-10-12.35495 1.000E-05 01:48:45.160 1.500E-01 0.600 F -0.304 0.116 +02° 17' 06.30" 1.000E-01 0.600 F 0.076 0.016 20.4 V 0.70 0.22 i 691 0.20 Yes Yes
1996TP6 O c 1996-10-12.37608 1.000E-05 01:48:42.410 1.500E-01 0.600 F -0.304 0.278 +02° 17' 15.20" 1.000E-01 0.600 F 0.076 0.301 20.2 V 0.70 0.02 i 691 0.70 Yes Yes
1996TP6 O c 1996-10-15.29094 1.000E-05 01:42:49.950 1.500E-01 0.600 F -0.355 0.172 +02° 36' 45.80" 1.000E-01 0.600 F 0.080 0.035 20.1 V 0.70 -0.12 i 691 0.30 Yes Yes
1996TP6 O c 1996-10-15.30232 1.000E-05 01:42:48.560 1.500E-01 0.600 F -0.355 0.172 +02° 36' 50.30" 1.000E-01 0.600 F 0.080 0.031 20.5 V 0.70 0.28 i 691 0.30 Yes Yes
1996TY11 O c 1996-10-15.35557 1.000E-05 02:42:03.930 1.500E-01 0.600 F -0.597 0.020 +16° 04' 13.40" 1.000E-01 0.600 F 0.524 0.137 21.1 V 0.70 0.41 i 691 0.23 Yes Yes
1996TY11 O c 1996-10-15.37745 1.000E-05 02:42:00.990 1.500E-01 0.600 F -0.597 0.341 +16° 04' 13.50" 1.000E-01 0.600 F 0.524 -0.514 20.8 V 0.70 0.11 i 691 1.03 Yes Yes
1996TY11 O c 1996-10-15.40253 1.000E-05 02:41:57.460 1.500E-01 0.600 F -0.597 -1.595 +16° 04' 14.90" 1.000E-01 0.600 F 0.524 0.094 20.5 V 0.70 -0.18 i 691 2.69 Yes Yes
1996TP6 O c 1996-10-16.23570 1.000E-05 01:41:01.230 1.500E-01 0.600 F -0.020 -0.083 +02° 42' 57.80" 1.000E-01 0.600 F 0.134 0.261 20.4 V 0.70 0.16 i 691 0.46 Yes Yes
1996TP6 O c 1996-10-16.24317 1.000E-05 01:41:00.360 1.500E-01 0.600 F -0.020 0.167 +02° 43' 00.50" 1.000E-01 0.600 F 0.134 0.022 20.3 V 0.70 0.06 i 691 0.29 Yes Yes
1996TP6 O c 1996-10-16.25591 1.000E-05 01:40:58.840 1.500E-01 0.600 F -0.020 0.070 +02° 43' 05.60" 1.000E-01 0.600 F 0.134 0.115 20.5 V 0.70 0.26 i 691 0.23 Yes Yes
1996TY11 O c 1996-10-16.26362 1.000E-05 02:40:03.590 1.500E-01 0.600 F 0.191 -0.145 +16° 04' 40.30" 1.000E-01 0.600 F 0.472 -0.057 20.7 V 0.70 0.06 i 691 0.26 Yes Yes
1996TY11 O c 1996-10-16.26779 1.000E-05 02:40:03.020 1.500E-01 0.600 F 0.191 -0.037 +16° 04' 40.60" 1.000E-01 0.600 F 0.472 0.103 20.9 V 0.70 0.27 i 691 0.18 Yes Yes
1996TY11 O c 1996-10-16.27226 1.000E-05 02:40:02.380 1.500E-01 0.600 F 0.191 -0.334 +16° 04' 40.90" 1.000E-01 0.600 F 0.472 0.254 20.6 V 0.70 -0.03 i 691 0.70 Yes Yes
1996TY11 O c 1996-10-18.41983 1.000E-05 02:35:03.120 1.500E-01 0.600 F 0.263 0.828 +16° 05' 06.10" 1.000E-01 0.600 F 0.251 0.078 21.1 V 0.70 0.59 i 691 1.40 Yes Yes
1996TY11 O c 1996-10-18.42440 1.000E-05 02:35:02.410 1.500E-01 0.600 F 0.263 0.283 +16° 05' 05.80" 1.000E-01 0.600 F 0.251 -0.177 i 691 0.56 Yes No
1996TY11 O c 1996-10-18.42892 1.000E-05 02:35:01.690 1.500E-01 0.600 F 0.263 -0.515 +16° 05' 05.90" 1.000E-01 0.600 F 0.251 -0.031 i 691 0.87 Yes No
1996TP6 O c 1996-10-21.29064 1.000E-05 01:32:05.920 1.500E-01 0.600 F -0.212 -0.242 +03° 15' 15.50" 1.000E-01 0.600 F -0.064 -0.199 i 691 0.53 Yes No
1996TP6 O c 1996-10-21.29917 1.000E-05 01:32:05.100 1.500E-01 0.600 F -0.212 0.563 +03° 15' 18.00" 1.000E-01 0.600 F -0.064 -0.908 i 691 1.81 Yes No
1996TP6 O c 1996-10-21.31009 1.000E-05 01:32:04.040 1.500E-01 0.600 F -0.212 1.432 +03° 15' 22.20" 1.000E-01 0.600 F -0.064 -0.813 20.8 V 0.70 0.30 i 691 2.79 Yes Yes
1996TY11 O c 1996-10-21.31685 1.000E-05 02:27:53.120 1.500E-01 0.600 F 0.121 0.005 +16° 04' 08.90" 1.000E-01 0.600 F 0.004 0.242 20.3 V 0.70 -0.03 i 691 0.41 Yes Yes
1996TY11 O c 1996-10-21.32088 1.000E-05 02:27:52.480 1.500E-01 0.600 F 0.121 -0.036 +16° 04' 08.30" 1.000E-01 0.600 F 0.004 -0.206 i 691 0.35 Yes No
1996TY11 O c 1996-10-21.32488 1.000E-05 02:27:51.880 1.500E-01 0.600 F 0.121 0.433 +16° 04' 08.50" 1.000E-01 0.600 F 0.004 0.146 i 691 0.77 Yes No
1996TR6 O C 1996-10-21.41755 1.000E-05 03:47:43.070 1.500E-01 0.600 F -0.557 0.225 -02° 36' 51.40" 1.000E-01 0.600 F -0.396 -0.126 19.9 V 0.70 0.55 a 691 0.43 Yes Yes
1996TR6 O C 1996-10-21.42157 1.000E-05 03:47:42.860 1.500E-01 0.600 F -0.557 0.514 -02° 37' 00.50" 1.000E-01 0.600 F -0.396 -0.265 20.1 V 0.70 0.75 a 691 0.97 Yes Yes
1996TR6 O C 1996-10-21.42865 1.000E-05 03:47:42.450 1.500E-01 0.600 F -0.557 0.419 -02° 37' 14.30" 1.000E-01 0.600 F -0.396 1.716 19.3 V 0.70 -0.05 a 691 2.95 Yes Yes
1996TY11 O c 1996-11-07.27832 1.000E-05 01:39:19.930 1.500E-01 0.600 F -0.514 0.070 +15° 21' 59.80" 1.000E-01 0.600 F -0.221 -0.137 i 691 0.26 Yes No
1996TY11 O c 1996-11-07.28389 1.000E-05 01:39:18.900 1.500E-01 0.600 F -0.514 -0.159 +15° 21' 58.60" 1.000E-01 0.600 F -0.221 0.042 i 691 0.28 Yes No
1996TY11 O c 1996-11-07.29116 1.000E-05 01:39:17.550 1.500E-01 0.600 F -0.514 -0.545 +15° 21' 56.40" 1.000E-01 0.600 F -0.221 -0.353 i 691 1.10 Yes No
1996TR6 O c 1996-11-07.30547 1.000E-05 03:28:55.230 1.500E-01 0.600 F -1.521 -0.076 -11° 41' 55.10" 1.000E-01 0.600 F 0.402 -0.118 19.5 V 0.70 0.05 i 691 0.23 Yes Yes
1996TR6 O c 1996-11-07.31203 1.000E-05 03:28:54.700 1.500E-01 0.600 F -1.521 -0.112 -11° 42' 04.80" 1.000E-01 0.600 F 0.402 0.303 19.5 V 0.70 0.05 i 691 0.54 Yes Yes
1996TR6 O c 1996-11-07.31811 1.000E-05 03:28:54.210 1.500E-01 0.600 F -1.521 -0.126 -11° 42' 14.40" 1.000E-01 0.600 F 0.402 0.077 19.5 V 0.70 0.04 i 691 0.25 Yes Yes
1996TY11 O c 1996-11-08.21072 1.000E-05 01:36:35.510 1.500E-01 0.600 F -0.160 1.492 +15° 18' 09.20" 1.000E-01 0.600 F -0.577 0.031 20.0 V 0.70 -0.23 i 691 2.52 Yes Yes
1996TY11 O c 1996-11-08.21817 1.000E-05 01:36:34.100 1.500E-01 0.600 F -0.160 0.606 +15° 18' 07.40" 1.000E-01 0.600 F -0.577 0.070 20.0 V 0.70 -0.23 i 691 1.03 Yes Yes
1996TY11 O c 1996-11-08.22572 1.000E-05 01:36:32.770 1.500E-01 0.600 F -0.160 1.142 +15° 18' 05.50" 1.000E-01 0.600 F -0.577 0.041 19.9 V 0.70 -0.33 i 691 1.93 Yes Yes

[1-200] [201-400] [401-600] [601-800] [801-1000] [1001-1200] [1201-1400] [1401-1600] [1601-1800] [1801-2000] [2001-2200] [2201-2400] [2401-2600] [2601-2800] [2801-3000] [3001-3200] [3201-3400] [3401-3600] [3601-3800] [3801-4000] [4001-4200] [4201-4400] [4401-4600] [4601-4800] [4801-5000] [5001-5200] [5201-5400] [5401-5600] [5601-5800] [5801-6000] [6001-6200] [6201-6400] [6401-6600] [6601-6800] [6801-7000] [7001-7200] [7201-7400] [7401-7600] [7601-7800] [7801-8000] [8001-8200] [8201-8400] [8401-8600] [8601-8800] [8801-9000] [9001-9200] [9201-9400] [9401-9600] [9601-9800] [9801-10000] [10001-10200] [10201-10400] [10401-10600] [10601-10800] [10801-11000] [11001-11200] [11201-11400] [11401-11600] [11601-11800] [11801-12000] [12001-12200] [12201-12400] [12401-12600] [12601-12800] [12801-13000] [13001-13200] [13201-13400] [13401-13600] [13601-13800] [13801-14000] [14001-14200] [14201-14400] [14401-14600] [14601-14800] [14801-15000] [15001-15200] [15201-15400] [15401-15600] [15601-15800] [15801-16000] [16001-16200] [16201-16400] [16401-16600] [16601-16800] [16801-17000] [17001-17200] [17201-17400] [17401-17600] [17601-17800] [17801-18000] [18001-18200] [18201-18400] [18401-18600] [18601-18800] [18801-19000] [19001-19200] [19201-19400] [19401-19600] [19601-19800] [19801-20000] [20001-20200] [20201-20400] [20401-20600] [20601-20800] [20801-21000] [21001-21200] [21201-21400] [21401-21600] [21601-21800] [21801-22000] [22001-22200] [22201-22400] [22401-22600] [22601-22800] [22801-23000] [23001-23200] [23201-23400] [23401-23600] [23601-23800] [23801-24000] [24001-24200] [24201-24400] [24401-24600] [24601-24800] [24801-25000] [25001-25200] [25201-25400] [25401-25600] [25601-25800] [25801-26000] [26001-26200] [26201-26400] [26401-26600] [26601-26800] [26801-27000] [27001-27200] [27201-27400] [27401-27600] [27601-27800] [27801-28000] [28001-28200] [28201-28400] [28401-28600] [28601-28800] [28801-29000] [29001-29200] [29201-29400] [29401-29600] [29601-29800] [29801-30000] [30001-30200] [30201-30400] [30401-30600] [30601-30800] [30801-31000] [31001-31200] [31201-31400] [31401-31600] [31601-31800] [31801-32000] [32001-32200] [32201-32400] [32401-32600] [32601-32800] [32801-33000] [33001-33200] [33201-33400] [33401-33600] [33601-33800] [33801-34000] [34001-34200] [34201-34400] [34401-34600] [34601-34800] [34801-35000] [35001-35200] [35201-35400] [35401-35600] [35601-35800] [35801-36000] [36001-36200] [36201-36400] [36401-36600] [36601-36800] [36801-37000] [37001-37200] [37201-37400] [37401-37600] [37601-37800] [37801-38000] [38001-38200] [38201-38400] [38401-38600] [38601-38800] [38801-39000] [39001-39200] [39201-39400] [39401-39600] [39601-39800] [39801-40000] [40001-40200] [40201-40400] [40401-40600] [40601-40800] [40801-41000] [41001-41200] [41201-41400] [41401-41600] [41601-41800] [41801-42000] [42001-42200] [42201-42400] [42401-42600] [42601-42800] [42801-43000] [43001-43200] [43201-43400] [43401-43600] [43601-43800] [43801-44000] [44001-44200] [44201-44400] [44401-44600] [44601-44800] [44801-45000] [45001-45200] [45201-45400] [45401-45600] [45601-45800] [45801-46000] [46001-46200] [46201-46400] [46401-46600] [46601-46800] [46801-47000] [47001-47200] [47201-47400] [47401-47600] [47601-47800] [47801-48000] [48001-48200] [48201-48400] [48401-48600] [48601-48800] [48801-49000] [49001-49200] [49201-49400] [49401-49600] [49601-49800] [49801-50000] [50001-50200] [50201-50388]